createdAt,value
2024-03-19T00:00:30.136Z,100751.00
2024-03-19T00:03:20.708Z,100752.40
2024-03-19T00:05:51.280Z,100754.00
2024-03-19T00:08:21.879Z,100752.00
2024-03-19T00:10:55.504Z,100756.40
2024-03-19T00:13:26.141Z,100761.20
2024-03-19T00:15:57.261Z,100760.20
2024-03-19T00:18:28.228Z,100763.80
2024-03-19T00:20:58.824Z,100762.80
2024-03-19T00:23:29.431Z,100756.20
2024-03-19T00:26:00.294Z,100753.60
2024-03-19T00:28:30.888Z,100757.60
2024-03-19T00:31:01.920Z,100756.00
2024-03-19T00:33:32.665Z,100752.60
2024-03-19T00:36:07.067Z,100751.60
2024-03-19T00:38:37.688Z,100745.40
2024-03-19T00:41:08.540Z,100747.80
2024-03-19T00:43:39.197Z,100748.60
2024-03-19T00:46:09.722Z,100748.60
2024-03-19T00:48:40.228Z,100752.40
2024-03-19T00:51:10.868Z,100744.60
2024-03-19T00:53:41.432Z,100742.60
2024-03-19T00:56:12.161Z,100743.60
2024-03-19T00:58:42.919Z,100746.20
2024-03-19T01:01:14.704Z,100737.80
2024-03-19T01:03:45.272Z,100740.40
2024-03-19T01:06:16.157Z,100739.60
2024-03-19T01:08:47.010Z,100741.20
2024-03-19T01:11:17.694Z,100740.60
2024-03-19T01:13:48.244Z,100742.20
2024-03-19T01:16:18.942Z,100743.00
2024-03-19T01:18:49.426Z,100740.20
2024-03-19T01:21:19.978Z,100739.00
2024-03-19T01:23:50.548Z,100733.80
2024-03-19T01:26:22.654Z,100730.80
2024-03-19T01:28:53.304Z,100735.80
2024-03-19T01:31:23.982Z,100736.20
2024-03-19T01:33:55.100Z,100738.20
2024-03-19T01:36:25.742Z,100739.40
2024-03-19T01:38:56.280Z,100737.60
2024-03-19T01:41:26.879Z,100740.20
2024-03-19T01:43:57.369Z,100746.60
2024-03-19T01:46:30.373Z,100748.60
2024-03-19T01:49:01.213Z,100748.40
2024-03-19T01:51:33.069Z,100744.60
2024-03-19T01:54:03.636Z,100747.20
2024-03-19T01:56:35.658Z,100743.60
2024-03-19T01:59:06.394Z,100747.40
2024-03-19T02:01:37.080Z,100747.20
2024-03-19T02:04:07.742Z,100748.20
2024-03-19T02:06:38.501Z,100751.40
2024-03-19T02:09:10.295Z,100746.20
2024-03-19T02:11:41.602Z,100752.00
2024-03-19T02:14:12.201Z,100750.40
2024-03-19T02:16:42.743Z,100748.80
2024-03-19T02:19:14.003Z,100756.40
2024-03-19T02:21:44.510Z,100754.60
2024-03-19T02:24:15.140Z,100754.40
2024-03-19T02:26:45.752Z,100755.80
2024-03-19T02:29:16.455Z,100754.20
2024-03-19T02:31:46.900Z,100753.80
2024-03-19T02:34:17.424Z,100754.00
2024-03-19T02:36:47.965Z,100758.80
2024-03-19T02:39:18.833Z,100764.20
2024-03-19T02:41:50.137Z,100760.80
2024-03-19T02:44:20.803Z,100760.40
2024-03-19T02:46:51.335Z,100766.40
2024-03-19T02:49:21.878Z,100763.00
2024-03-19T02:51:52.547Z,100765.00
2024-03-19T02:54:23.106Z,100763.60
2024-03-19T02:56:53.755Z,100766.40
2024-03-19T02:59:24.507Z,100771.80
2024-03-19T03:01:55.370Z,100768.20
2024-03-19T03:04:25.957Z,100771.80
2024-03-19T03:06:56.613Z,100763.40
2024-03-19T03:09:27.200Z,100770.20
2024-03-19T03:11:57.749Z,100770.80
2024-03-19T03:14:28.290Z,100774.20
2024-03-19T03:16:58.896Z,100778.80
2024-03-19T03:19:29.421Z,100783.80
2024-03-19T03:22:00.012Z,100784.80
2024-03-19T03:24:31.539Z,100786.20
2024-03-19T03:27:02.126Z,100788.20
2024-03-19T03:29:32.716Z,100784.20
2024-03-19T03:32:03.277Z,100787.20
2024-03-19T03:34:33.865Z,100786.20
2024-03-19T03:37:10.739Z,100782.40
2024-03-19T03:39:45.824Z,100788.40
2024-03-19T03:42:16.428Z,100791.60
2024-03-19T03:44:46.991Z,100802.20
2024-03-19T03:47:17.596Z,100799.00
2024-03-19T03:49:48.850Z,100798.60
2024-03-19T03:52:19.345Z,100805.60
2024-03-19T03:54:49.883Z,100808.80
2024-03-19T03:57:20.496Z,100810.40
2024-03-19T03:59:51.092Z,100814.80
2024-03-19T04:02:21.605Z,100812.60
2024-03-19T04:04:54.017Z,100813.60
2024-03-19T04:07:24.556Z,100817.80
2024-03-19T04:09:55.020Z,100823.00
2024-03-19T04:12:25.657Z,100824.80
2024-03-19T04:14:56.198Z,100827.80
2024-03-19T04:17:26.783Z,100828.60
2024-03-19T04:19:57.353Z,100830.20
2024-03-19T04:22:28.394Z,100831.20
2024-03-19T04:24:58.888Z,100832.40
2024-03-19T04:27:29.480Z,100839.00
2024-03-19T04:30:00.059Z,100839.80
2024-03-19T04:32:30.794Z,100838.40
2024-03-19T04:35:01.315Z,100837.60
2024-03-19T04:37:32.224Z,100841.60
2024-03-19T04:40:02.962Z,100845.80
2024-03-19T04:42:33.510Z,100844.00
2024-03-19T04:45:04.057Z,100845.20
2024-03-19T04:47:34.746Z,100844.60
2024-03-19T04:50:05.825Z,100848.00
2024-03-19T04:52:36.506Z,100852.60
2024-03-19T04:55:08.217Z,100850.40
2024-03-19T04:57:38.745Z,100852.00
2024-03-19T05:00:14.173Z,100849.40
2024-03-19T05:02:44.766Z,100858.60
2024-03-19T05:05:15.410Z,100856.20
2024-03-19T05:07:46.107Z,100854.40
2024-03-19T05:10:16.789Z,100858.00
2024-03-19T05:12:47.346Z,100859.40
2024-03-19T05:15:18.089Z,100864.00
2024-03-19T05:17:48.678Z,100864.00
2024-03-19T05:20:20.028Z,100871.80
2024-03-19T05:22:50.728Z,100876.40
2024-03-19T05:25:21.339Z,100879.80
2024-03-19T05:27:51.964Z,100881.40
2024-03-19T05:30:23.381Z,100880.80
2024-03-19T05:32:53.954Z,100884.80
2024-03-19T05:35:24.767Z,100888.80
2024-03-19T05:37:55.338Z,100889.20
2024-03-19T05:40:26.324Z,100890.20
2024-03-19T05:42:56.856Z,100894.60
2024-03-19T05:45:27.628Z,100891.00
2024-03-19T05:47:58.534Z,100895.60
2024-03-19T05:50:29.101Z,100895.60
2024-03-19T05:52:59.789Z,100894.80
2024-03-19T05:55:30.349Z,100896.20
2024-03-19T05:58:00.894Z,100902.40
2024-03-19T06:00:31.456Z,100903.40
2024-03-19T06:03:02.524Z,100908.00
2024-03-19T06:05:33.105Z,100905.80
2024-03-19T06:08:03.707Z,100906.40
2024-03-19T06:10:35.246Z,100912.20
2024-03-19T06:13:05.886Z,100911.00
2024-03-19T06:15:36.552Z,100911.40
2024-03-19T06:18:08.149Z,100912.00
2024-03-19T06:20:38.924Z,100914.60
2024-03-19T06:23:09.594Z,100916.00
2024-03-19T06:25:40.872Z,100913.60
2024-03-19T06:28:12.101Z,100910.40
2024-03-19T06:30:42.659Z,100912.60
2024-03-19T06:33:13.357Z,100917.00
2024-03-19T06:35:45.512Z,100912.20
2024-03-19T06:38:16.109Z,100917.80
2024-03-19T06:40:46.998Z,100914.80
2024-03-19T06:43:17.561Z,100913.60
2024-03-19T06:45:48.161Z,100907.00
2024-03-19T06:48:20.014Z,100911.00
2024-03-19T06:50:50.632Z,100913.20
2024-03-19T06:53:22.998Z,100915.40
2024-03-19T06:55:53.548Z,100916.40
2024-03-19T06:58:24.215Z,100917.60
2024-03-19T07:00:54.841Z,100923.60
2024-03-19T07:03:25.404Z,100922.20
2024-03-19T07:05:56.100Z,100920.00
2024-03-19T07:08:26.922Z,100926.80
2024-03-19T07:10:59.174Z,100925.40
2024-03-19T07:13:30.792Z,100927.80
2024-03-19T07:16:01.283Z,100931.60
2024-03-19T07:18:31.833Z,100934.80
2024-03-19T07:21:02.339Z,100930.20
2024-03-19T07:23:32.987Z,100940.00
2024-03-19T07:26:03.975Z,100940.20
2024-03-19T07:28:34.594Z,100942.00
2024-03-19T07:31:05.383Z,100943.60
2024-03-19T07:33:36.119Z,100941.40
2024-03-19T07:36:07.368Z,100940.60
2024-03-19T07:38:38.241Z,100944.60
2024-03-19T07:41:09.376Z,100946.80
2024-03-19T07:43:40.372Z,100944.00
2024-03-19T07:46:11.588Z,100952.00
2024-03-19T07:48:42.214Z,100948.40
2024-03-19T07:51:12.740Z,100953.20
2024-03-19T07:53:43.554Z,100948.80
2024-03-19T07:56:14.390Z,100951.00
2024-03-19T07:58:45.090Z,100951.80
2024-03-19T08:01:15.821Z,100955.80
2024-03-19T08:03:51.375Z,100953.20
2024-03-19T08:06:25.259Z,100956.00
2024-03-19T08:08:55.957Z,100962.20
2024-03-19T08:11:29.936Z,100964.60
2024-03-19T08:14:03.406Z,100962.60
2024-03-19T08:16:34.173Z,100966.80
2024-03-19T08:19:04.790Z,100971.60
2024-03-19T08:21:36.838Z,100968.80
2024-03-19T08:24:08.115Z,100969.60
2024-03-19T08:26:38.692Z,100969.60
2024-03-19T08:29:09.566Z,100968.60
2024-03-19T08:31:40.262Z,100980.60
2024-03-19T08:34:10.770Z,100975.20
2024-03-19T08:36:41.370Z,100975.00
2024-03-19T08:39:12.079Z,100979.40
2024-03-19T08:41:42.730Z,100984.40
2024-03-19T08:44:13.489Z,100980.40
2024-03-19T08:46:44.186Z,100978.80
2024-03-19T08:49:17.675Z,100978.40
2024-03-19T08:51:48.213Z,100975.60
2024-03-19T08:54:18.902Z,100980.00
2024-03-19T08:56:49.549Z,100982.20
2024-03-19T08:59:20.179Z,100978.40
2024-03-19T09:01:50.747Z,100979.40
2024-03-19T09:04:21.374Z,100978.80
2024-03-19T09:06:51.916Z,100978.60
2024-03-19T09:09:22.573Z,100978.40
2024-03-19T09:11:53.688Z,100973.60
2024-03-19T09:14:24.256Z,100970.20
2024-03-19T09:16:54.830Z,100969.60
2024-03-19T09:19:26.276Z,100971.20
2024-03-19T09:21:56.811Z,100961.40
2024-03-19T09:24:27.956Z,100964.60
2024-03-19T09:26:58.600Z,100963.40
2024-03-19T09:29:29.162Z,100967.60
2024-03-19T09:31:59.745Z,100966.20
2024-03-19T09:34:30.264Z,100964.80
2024-03-19T09:37:01.076Z,100971.40
2024-03-19T09:39:31.653Z,100970.80
2024-03-19T09:42:11.370Z,100971.80
2024-03-19T09:44:43.809Z,100965.80
2024-03-19T09:47:19.048Z,100973.20
2024-03-19T09:49:50.997Z,100980.60
2024-03-19T09:52:23.710Z,100982.60
2024-03-19T09:54:54.433Z,100983.20
2024-03-19T09:57:25.285Z,100983.60
2024-03-19T09:59:58.725Z,100977.00
2024-03-19T10:02:29.265Z,100980.00
2024-03-19T10:04:59.935Z,100982.00
2024-03-19T10:07:30.397Z,100982.80
2024-03-19T10:10:01.017Z,100984.60
2024-03-19T10:12:33.487Z,100982.00
2024-03-19T10:15:09.469Z,100985.40
2024-03-19T10:17:40.338Z,100989.60
2024-03-19T10:20:12.648Z,100985.80
2024-03-19T10:22:43.416Z,100982.40
2024-03-19T10:25:16.347Z,100984.20
2024-03-19T10:27:47.488Z,100975.80
2024-03-19T10:30:20.466Z,100980.60
2024-03-19T10:32:51.690Z,100983.80
2024-03-19T10:35:23.723Z,100981.60
2024-03-19T10:37:55.257Z,100986.80
2024-03-19T10:40:25.995Z,100987.20
2024-03-19T10:42:57.009Z,100985.80
2024-03-19T10:45:29.968Z,100986.60
2024-03-19T10:48:00.678Z,100983.20
2024-03-19T10:50:31.893Z,100983.80
2024-03-19T10:53:05.692Z,100982.80
2024-03-19T10:55:38.713Z,100983.60
2024-03-19T10:58:13.052Z,100987.00
2024-03-19T11:00:44.313Z,100986.80
2024-03-19T11:03:16.860Z,100984.20
2024-03-19T11:05:49.718Z,100988.20
2024-03-19T11:08:22.115Z,100990.60
2024-03-19T11:10:52.620Z,100993.80
2024-03-19T11:13:26.604Z,100992.40
2024-03-19T11:15:57.295Z,100988.40
2024-03-19T11:18:30.217Z,100986.80
2024-03-19T11:21:00.784Z,100984.80
2024-03-19T11:23:31.668Z,100978.00
2024-03-19T11:26:05.671Z,100978.40
2024-03-19T11:28:36.303Z,100980.40
2024-03-19T11:31:07.557Z,100986.20
2024-03-19T11:33:41.532Z,100984.40
2024-03-19T11:36:15.444Z,100981.00
2024-03-19T11:38:45.978Z,100979.00
2024-03-19T11:41:27.130Z,100981.40
2024-03-19T11:44:02.931Z,100981.40
2024-03-19T11:46:34.297Z,100979.20
2024-03-19T11:49:04.928Z,100981.40
2024-03-19T11:51:35.568Z,100974.80
2024-03-19T11:54:12.442Z,100978.20
2024-03-19T11:56:43.466Z,100974.40
2024-03-19T11:59:14.118Z,100969.00
2024-03-19T12:01:44.712Z,100969.80
2024-03-19T12:04:15.298Z,100967.40
2024-03-19T12:06:46.376Z,100970.40
2024-03-19T12:09:17.475Z,100964.60
2024-03-19T12:11:49.434Z,100965.20
2024-03-19T12:14:22.230Z,100965.40
2024-03-19T12:16:53.016Z,100958.20
2024-03-19T12:19:23.916Z,100959.80
2024-03-19T12:21:56.481Z,100958.40
2024-03-19T12:24:27.115Z,100958.80
2024-03-19T12:26:57.724Z,100958.00
2024-03-19T12:29:28.522Z,100954.20
2024-03-19T12:32:04.121Z,100953.40
2024-03-19T12:34:59.946Z,100953.40
2024-03-19T12:37:30.520Z,100954.20
2024-03-19T12:40:01.478Z,100950.40
2024-03-19T12:42:32.126Z,100956.60
2024-03-19T12:45:02.883Z,100952.80
2024-03-19T12:47:33.492Z,100952.40
2024-03-19T12:50:04.731Z,100949.40
2024-03-19T12:52:35.478Z,100950.60
2024-03-19T12:55:06.942Z,100944.20
2024-03-19T12:57:40.037Z,100944.60
2024-03-19T13:00:12.833Z,100944.80
2024-03-19T13:02:43.568Z,100943.00
2024-03-19T13:05:15.269Z,100937.80
2024-03-19T13:07:45.816Z,100936.60
2024-03-19T13:10:21.734Z,100929.80
2024-03-19T13:12:52.975Z,100929.00
2024-03-19T13:15:23.584Z,100931.20
2024-03-19T13:17:55.826Z,100927.80
2024-03-19T13:20:27.607Z,100925.80
2024-03-19T13:22:58.162Z,100927.00
2024-03-19T13:25:29.344Z,100927.00
2024-03-19T13:28:00.652Z,100927.00
2024-03-19T13:30:31.301Z,100918.80
2024-03-19T13:33:02.100Z,100920.20
2024-03-19T13:35:32.650Z,100918.00
2024-03-19T13:38:04.206Z,100911.20
2024-03-19T13:40:34.813Z,100911.40
2024-03-19T13:43:05.770Z,100903.40
2024-03-19T13:45:41.398Z,100906.80
2024-03-19T13:48:14.657Z,100906.20
2024-03-19T13:50:48.457Z,100908.40
2024-03-19T13:53:19.751Z,100906.40
2024-03-19T13:55:50.490Z,100907.00
2024-03-19T13:58:21.331Z,100908.40
2024-03-19T14:00:52.678Z,100914.00
2024-03-19T14:03:24.268Z,100915.80
2024-03-19T14:05:55.120Z,100910.20
2024-03-19T14:08:25.771Z,100910.20
2024-03-19T14:10:56.397Z,100909.80
2024-03-19T14:13:27.190Z,100916.20
2024-03-19T14:15:57.698Z,100908.60
2024-03-19T14:18:28.712Z,100914.80
2024-03-19T14:20:59.436Z,100906.80
2024-03-19T14:23:30.652Z,100904.60
2024-03-19T14:26:01.191Z,100908.20
2024-03-19T14:28:31.793Z,100907.60
2024-03-19T14:31:03.008Z,100910.60
2024-03-19T14:33:33.575Z,100908.40
2024-03-19T14:36:04.393Z,100910.80
2024-03-19T14:38:35.115Z,100913.80
2024-03-19T14:41:06.538Z,100909.40
2024-03-19T14:43:39.114Z,100906.40
2024-03-19T14:46:10.631Z,100912.80
2024-03-19T14:48:41.175Z,100907.00
2024-03-19T14:51:11.722Z,100905.00
2024-03-19T14:53:43.424Z,100902.60
2024-03-19T14:56:14.473Z,100903.40
2024-03-19T14:58:45.040Z,100907.40
2024-03-19T15:01:15.604Z,100913.40
2024-03-19T15:03:46.346Z,100906.60
2024-03-19T15:06:16.910Z,100912.40
2024-03-19T15:08:47.673Z,100910.80
2024-03-19T15:11:18.314Z,100909.60
2024-03-19T15:13:48.981Z,100915.80
2024-03-19T15:16:19.681Z,100916.60
2024-03-19T15:18:50.477Z,100912.60
2024-03-19T15:21:21.125Z,100911.40
2024-03-19T15:23:51.941Z,100910.00
2024-03-19T15:26:22.452Z,100908.80
2024-03-19T15:28:53.131Z,100908.40
2024-03-19T15:31:23.665Z,100907.40
2024-03-19T15:33:54.944Z,100907.40
2024-03-19T15:36:25.867Z,100902.40
2024-03-19T15:38:56.435Z,100906.60
2024-03-19T15:41:29.554Z,100897.00
2024-03-19T15:44:00.263Z,100899.00
2024-03-19T15:46:30.948Z,100901.00
2024-03-19T15:49:01.577Z,100897.20
2024-03-19T15:51:32.501Z,100906.40
2024-03-19T15:54:03.092Z,100907.40
2024-03-19T15:56:33.772Z,100905.00
2024-03-19T15:59:04.676Z,100903.20
2024-03-19T16:01:35.245Z,100901.00
2024-03-19T16:04:06.157Z,100900.60
2024-03-19T16:06:36.814Z,100903.40
2024-03-19T16:09:10.235Z,100906.80
2024-03-19T16:11:40.920Z,100910.40
2024-03-19T16:14:12.639Z,100912.00
2024-03-19T16:16:44.281Z,100909.00
2024-03-19T16:19:14.817Z,100912.80
2024-03-19T16:21:45.892Z,100909.80
2024-03-19T16:24:16.408Z,100910.00
2024-03-19T16:26:47.009Z,100913.20
2024-03-19T16:29:17.483Z,100911.60
2024-03-19T16:31:48.131Z,100913.00
2024-03-19T16:34:18.693Z,100910.80
2024-03-19T16:36:49.206Z,100914.40
2024-03-19T16:39:19.908Z,100912.60
2024-03-19T16:41:50.787Z,100917.80
2024-03-19T16:44:21.341Z,100918.20
2024-03-19T16:46:53.059Z,100923.20
2024-03-19T16:49:23.615Z,100926.40
2024-03-19T16:51:54.197Z,100923.60
2024-03-19T16:54:24.703Z,100929.80
2024-03-19T16:56:55.626Z,100928.20
2024-03-19T16:59:26.160Z,100929.40
2024-03-19T17:01:57.227Z,100933.40
2024-03-19T17:04:27.821Z,100932.00
2024-03-19T17:06:59.684Z,100930.00
2024-03-19T17:09:30.291Z,100939.60
2024-03-19T17:12:00.927Z,100944.00
2024-03-19T17:14:31.596Z,100945.80
2024-03-19T17:17:02.341Z,100948.00
2024-03-19T17:19:33.137Z,100950.00
2024-03-19T17:22:03.710Z,100954.00
2024-03-19T17:24:34.329Z,100953.00
2024-03-19T17:27:05.257Z,100955.40
2024-03-19T17:29:35.912Z,100955.40
2024-03-19T17:32:07.153Z,100959.00
2024-03-19T17:34:44.018Z,100962.80
2024-03-19T17:37:15.013Z,100969.80
2024-03-19T17:39:45.561Z,100968.80
2024-03-19T17:42:16.149Z,100973.20
2024-03-19T17:44:46.747Z,100972.40
2024-03-19T17:47:17.394Z,100975.60
2024-03-19T17:49:48.005Z,100970.20
2024-03-19T17:52:18.646Z,100977.40
2024-03-19T17:54:49.638Z,100977.80
2024-03-19T17:57:20.291Z,100970.60
2024-03-19T17:59:50.894Z,100973.80
2024-03-19T18:02:21.563Z,100971.80
2024-03-19T18:04:52.401Z,100967.20
2024-03-19T18:07:23.044Z,100968.60
2024-03-19T18:09:54.829Z,100968.40
2024-03-19T18:12:25.487Z,100970.40
2024-03-19T18:14:56.142Z,100969.80
2024-03-19T18:17:27.184Z,100970.00
2024-03-19T18:19:57.762Z,100972.80
2024-03-19T18:22:28.535Z,100971.60
2024-03-19T18:24:59.157Z,100967.00
2024-03-19T18:27:31.134Z,100971.20
2024-03-19T18:30:03.318Z,100974.20
2024-03-19T18:32:34.009Z,100971.40
2024-03-19T18:35:05.131Z,100971.40
2024-03-19T18:37:36.033Z,100967.20
2024-03-19T18:40:07.752Z,100962.00
2024-03-19T18:42:38.728Z,100964.00
2024-03-19T18:45:11.912Z,100962.00
2024-03-19T18:47:44.721Z,100959.60
2024-03-19T18:50:21.594Z,100964.20
2024-03-19T18:52:52.134Z,100963.40
2024-03-19T18:55:23.126Z,100967.20
2024-03-19T18:57:58.438Z,100966.60
2024-03-19T19:00:29.898Z,100967.80
2024-03-19T19:03:00.777Z,100965.40
2024-03-19T19:05:32.142Z,100970.20
2024-03-19T19:08:02.942Z,100970.40
2024-03-19T19:10:34.094Z,100973.60
2024-03-19T19:13:05.441Z,100975.80
2024-03-19T19:15:35.984Z,100981.40
2024-03-19T19:18:07.198Z,100983.60
2024-03-19T19:20:37.860Z,100981.20
2024-03-19T19:23:08.691Z,100980.20
2024-03-19T19:25:40.023Z,100978.20
2024-03-19T19:28:11.260Z,100978.60
2024-03-19T19:30:43.322Z,100979.80
2024-03-19T19:33:17.167Z,100978.40
2024-03-19T19:35:47.742Z,100980.40
2024-03-19T19:38:20.417Z,100977.40
2024-03-19T19:40:54.522Z,100974.60
2024-03-19T19:43:25.328Z,100969.80
2024-03-19T19:45:55.936Z,100973.40
2024-03-19T19:48:26.963Z,100970.60
2024-03-19T19:50:57.611Z,100969.80
2024-03-19T19:53:28.241Z,100968.80
2024-03-19T19:55:59.950Z,100967.40
2024-03-19T19:58:31.014Z,100964.00
2024-03-19T20:01:03.467Z,100966.40
2024-03-19T20:03:33.984Z,100969.20
2024-03-19T20:06:04.789Z,100966.80
2024-03-19T20:08:35.691Z,100962.00
2024-03-19T20:11:06.911Z,100965.20
2024-03-19T20:13:37.475Z,100961.20
2024-03-19T20:16:09.285Z,100959.60
2024-03-19T20:18:39.954Z,100963.20
2024-03-19T20:21:10.626Z,100969.00
2024-03-19T20:23:41.267Z,100969.40
2024-03-19T20:26:11.809Z,100971.80
2024-03-19T20:28:42.435Z,100974.80
2024-03-19T20:31:12.964Z,100970.40
2024-03-19T20:33:43.736Z,100974.00
2024-03-19T20:36:14.368Z,100973.00
2024-03-19T20:38:45.786Z,100966.80
2024-03-19T20:41:16.442Z,100964.20
2024-03-19T20:43:47.081Z,100967.60
2024-03-19T20:46:17.677Z,100968.00
2024-03-19T20:48:48.212Z,100963.60
2024-03-19T20:51:20.304Z,100964.00
2024-03-19T20:53:52.159Z,100966.20
2024-03-19T20:56:23.838Z,100967.80
2024-03-19T20:58:55.503Z,100968.80
2024-03-19T21:01:28.344Z,100972.40
2024-03-19T21:03:58.920Z,100974.40
2024-03-19T21:06:29.615Z,100968.00
2024-03-19T21:09:00.251Z,100964.00
2024-03-19T21:11:30.832Z,100960.00
2024-03-19T21:14:01.466Z,100969.20
2024-03-19T21:16:32.219Z,100969.60
2024-03-19T21:19:03.660Z,100963.20
2024-03-19T21:21:35.979Z,100962.80
2024-03-19T21:24:08.282Z,100956.20
2024-03-19T21:26:38.999Z,100958.00
2024-03-19T21:29:09.578Z,100951.40
2024-03-19T21:31:40.165Z,100953.60
2024-03-19T21:34:10.813Z,100954.80
2024-03-19T21:36:41.423Z,100951.80
2024-03-19T21:39:12.106Z,100944.00
2024-03-19T21:41:42.570Z,100944.40
2024-03-19T21:44:13.178Z,100945.40
2024-03-19T21:46:44.146Z,100945.80
2024-03-19T21:49:15.876Z,100946.00
2024-03-19T21:51:46.913Z,100945.40
2024-03-19T21:54:17.442Z,100942.00
2024-03-19T21:56:48.021Z,100942.20
2024-03-19T21:59:18.558Z,100941.60
2024-03-19T22:01:49.467Z,100941.20
2024-03-19T22:04:20.243Z,100937.00
2024-03-19T22:06:50.726Z,100936.60
2024-03-19T22:09:21.557Z,100933.00
2024-03-19T22:11:52.182Z,100927.80
2024-03-19T22:14:22.699Z,100926.00
2024-03-19T22:16:53.236Z,100922.60
2024-03-19T22:19:23.965Z,100923.80
2024-03-19T22:21:54.519Z,100929.60
2024-03-19T22:24:25.308Z,100929.40
2024-03-19T22:26:55.887Z,100931.00
2024-03-19T22:29:26.574Z,100934.60
2024-03-19T22:31:58.763Z,100932.40
2024-03-19T22:34:29.938Z,100933.00
2024-03-19T22:37:00.698Z,100931.40
2024-03-19T22:39:31.369Z,100932.60
2024-03-19T22:42:01.972Z,100930.00
2024-03-19T22:44:32.470Z,100930.40
2024-03-19T22:47:04.370Z,100920.40
2024-03-19T22:49:35.045Z,100920.80
2024-03-19T22:52:06.189Z,100922.60
2024-03-19T22:54:36.764Z,100916.80
2024-03-19T22:57:07.811Z,100918.20
2024-03-19T22:59:38.440Z,100920.40
2024-03-19T23:02:09.893Z,100924.00
2024-03-19T23:04:40.450Z,100922.40
2024-03-19T23:07:11.187Z,100920.20
2024-03-19T23:09:43.243Z,100911.20
2024-03-19T23:12:13.937Z,100914.00
2024-03-19T23:14:44.440Z,100914.20
2024-03-19T23:17:14.984Z,100915.60
2024-03-19T23:19:46.790Z,100919.40
2024-03-19T23:22:17.357Z,100912.80
2024-03-19T23:24:48.001Z,100913.80
2024-03-19T23:27:18.562Z,100907.40
2024-03-19T23:29:49.241Z,100914.40
2024-03-19T23:32:19.843Z,100915.00
2024-03-19T23:34:50.514Z,100915.40
2024-03-19T23:37:21.155Z,100921.60
2024-03-19T23:39:52.181Z,100923.80
2024-03-19T23:42:22.742Z,100919.40
2024-03-19T23:44:53.353Z,100914.60
2024-03-19T23:47:24.153Z,100913.40
2024-03-19T23:49:54.727Z,100911.80
2024-03-19T23:52:25.386Z,100906.00
2024-03-19T23:54:56.131Z,100912.60
2024-03-19T23:57:26.787Z,100910.40
2024-03-19T23:59:59.010Z,100909.00
